sensor_id;sensor_type;location;lat;lon;timestamp;P1;durP1;ratioP1;P2;durP2;ratioP2
18206;SDS011;9229;52.354;20.886;2022-08-03T00:01:53;11.23;;;8.68;;
18206;SDS011;9229;52.354;20.886;2022-08-03T00:06:57;12.68;;;7.82;;
18206;SDS011;9229;52.354;20.886;2022-08-03T00:11:59;11.02;;;7.40;;
18206;SDS011;9229;52.354;20.886;2022-08-03T00:17:02;8.30;;;7.50;;
18206;SDS011;9229;52.354;20.886;2022-08-03T00:22:06;9.13;;;8.32;;
18206;SDS011;9229;52.354;20.886;2022-08-03T00:27:09;10.73;;;7.60;;
18206;SDS011;9229;52.354;20.886;2022-08-03T00:32:12;8.57;;;7.88;;
18206;SDS011;9229;52.354;20.886;2022-08-03T00:37:16;9.95;;;8.38;;
18206;SDS011;9229;52.354;20.886;2022-08-03T00:42:19;13.25;;;8.10;;
18206;SDS011;9229;52.354;20.886;2022-08-03T00:47:22;17.42;;;8.82;;
18206;SDS011;9229;52.354;20.886;2022-08-03T00:52:26;13.20;;;8.45;;
18206;SDS011;9229;52.354;20.886;2022-08-03T00:57:30;8.50;;;7.78;;
18206;SDS011;9229;52.354;20.886;2022-08-03T01:02:34;7.85;;;7.13;;
18206;SDS011;9229;52.354;20.886;2022-08-03T01:07:43;11.75;;;7.57;;
18206;SDS011;9229;52.354;20.886;2022-08-03T01:12:57;11.98;;;7.43;;
18206;SDS011;9229;52.354;20.886;2022-08-03T01:18:06;8.40;;;7.65;;
18206;SDS011;9229;52.354;20.886;2022-08-03T01:23:21;9.02;;;8.27;;
18206;SDS011;9229;52.354;20.886;2022-08-03T01:28:47;9.82;;;8.55;;
18206;SDS011;9229;52.354;20.886;2022-08-03T01:34:06;10.80;;;8.57;;
18206;SDS011;9229;52.354;20.886;2022-08-03T01:39:13;10.30;;;9.13;;
18206;SDS011;9229;52.354;20.886;2022-08-03T01:44:18;9.15;;;8.25;;
18206;SDS011;9229;52.354;20.886;2022-08-03T01:49:24;10.50;;;8.68;;
18206;SDS011;9229;52.354;20.886;2022-08-03T01:54:29;9.75;;;8.68;;
18206;SDS011;9229;52.354;20.886;2022-08-03T01:59:34;11.10;;;8.95;;
18206;SDS011;9229;52.354;20.886;2022-08-03T02:04:41;13.05;;;9.82;;
18206;SDS011;9229;52.354;20.886;2022-08-03T02:09:48;9.80;;;8.73;;
18206;SDS011;9229;52.354;20.886;2022-08-03T02:14:53;9.40;;;8.70;;
18206;SDS011;9229;52.354;20.886;2022-08-03T02:19:59;9.65;;;8.80;;
18206;SDS011;9229;52.354;20.886;2022-08-03T02:25:03;10.25;;;9.18;;
18206;SDS011;9229;52.354;20.886;2022-08-03T02:30:08;10.30;;;9.30;;
18206;SDS011;9229;52.354;20.886;2022-08-03T02:35:15;11.25;;;8.00;;
18206;SDS011;9229;52.354;20.886;2022-08-03T02:40:21;9.82;;;8.82;;
18206;SDS011;9229;52.354;20.886;2022-08-03T02:45:28;12.13;;;8.35;;
18206;SDS011;9229;52.354;20.886;2022-08-03T02:50:35;9.55;;;8.20;;
18206;SDS011;9229;52.354;20.886;2022-08-03T02:55:39;15.30;;;9.20;;
18206;SDS011;9229;52.354;20.886;2022-08-03T03:00:43;9.70;;;8.68;;
18206;SDS011;9229;52.354;20.886;2022-08-03T03:05:47;9.77;;;8.20;;
18206;SDS011;9229;52.354;20.886;2022-08-03T03:10:51;8.73;;;7.93;;
18206;SDS011;9229;52.354;20.886;2022-08-03T03:15:56;11.82;;;8.15;;
18206;SDS011;9229;52.354;20.886;2022-08-03T03:21:03;9.70;;;8.65;;
18206;SDS011;9229;52.354;20.886;2022-08-03T03:26:08;12.30;;;9.25;;
18206;SDS011;9229;52.354;20.886;2022-08-03T03:31:14;10.60;;;9.70;;
18206;SDS011;9229;52.354;20.886;2022-08-03T03:36:18;8.63;;;7.93;;
18206;SDS011;9229;52.354;20.886;2022-08-03T03:41:21;9.55;;;8.40;;
18206;SDS011;9229;52.354;20.886;2022-08-03T03:46:24;13.15;;;8.18;;
18206;SDS011;9229;52.354;20.886;2022-08-03T03:51:29;16.08;;;8.32;;
18206;SDS011;9229;52.354;20.886;2022-08-03T03:56:32;10.18;;;9.02;;
18206;SDS011;9229;52.354;20.886;2022-08-03T04:01:35;10.98;;;9.98;;
18206;SDS011;9229;52.354;20.886;2022-08-03T04:06:40;15.68;;;11.32;;
18206;SDS011;9229;52.354;20.886;2022-08-03T04:11:57;12.75;;;11.45;;
18206;SDS011;9229;52.354;20.886;2022-08-03T04:17:03;14.13;;;12.13;;
18206;SDS011;9229;52.354;20.886;2022-08-03T04:22:13;16.58;;;13.85;;
18206;SDS011;9229;52.354;20.886;2022-08-03T04:27:20;16.45;;;13.23;;
18206;SDS011;9229;52.354;20.886;2022-08-03T04:32:25;20.63;;;14.98;;
18206;SDS011;9229;52.354;20.886;2022-08-03T04:37:34;18.70;;;13.30;;
18206;SDS011;9229;52.354;20.886;2022-08-03T04:42:41;19.30;;;13.85;;
18206;SDS011;9229;52.354;20.886;2022-08-03T04:47:45;25.20;;;15.98;;
18206;SDS011;9229;52.354;20.886;2022-08-03T04:52:50;18.23;;;14.00;;
18206;SDS011;9229;52.354;20.886;2022-08-03T04:57:54;22.35;;;17.08;;
18206;SDS011;9229;52.354;20.886;2022-08-03T05:02:57;23.67;;;17.10;;
18206;SDS011;9229;52.354;20.886;2022-08-03T05:08:01;27.88;;;15.93;;
18206;SDS011;9229;52.354;20.886;2022-08-03T05:13:04;20.85;;;16.45;;
18206;SDS011;9229;52.354;20.886;2022-08-03T05:18:11;22.88;;;16.33;;
18206;SDS011;9229;52.354;20.886;2022-08-03T05:23:15;26.33;;;17.15;;
18206;SDS011;9229;52.354;20.886;2022-08-03T05:28:19;18.90;;;15.05;;
18206;SDS011;9229;52.354;20.886;2022-08-03T05:33:22;21.10;;;15.63;;
18206;SDS011;9229;52.354;20.886;2022-08-03T05:38:26;22.25;;;16.88;;
18206;SDS011;9229;52.354;20.886;2022-08-03T05:43:29;18.17;;;15.68;;
18206;SDS011;9229;52.354;20.886;2022-08-03T05:48:32;20.20;;;15.25;;
18206;SDS011;9229;52.354;20.886;2022-08-03T05:53:36;23.70;;;15.05;;
18206;SDS011;9229;52.354;20.886;2022-08-03T05:58:40;18.25;;;14.93;;
18206;SDS011;9229;52.354;20.886;2022-08-03T06:03:44;17.17;;;13.73;;
18206;SDS011;9229;52.354;20.886;2022-08-03T06:08:48;18.63;;;14.55;;
18206;SDS011;9229;52.354;20.886;2022-08-03T06:13:51;21.27;;;14.38;;
18206;SDS011;9229;52.354;20.886;2022-08-03T06:18:54;15.73;;;13.95;;
18206;SDS011;9229;52.354;20.886;2022-08-03T06:23:58;18.13;;;13.65;;
18206;SDS011;9229;52.354;20.886;2022-08-03T06:29:01;15.07;;;13.43;;
18206;SDS011;9229;52.354;20.886;2022-08-03T06:34:04;22.50;;;12.52;;
18206;SDS011;9229;52.354;20.886;2022-08-03T06:39:09;13.88;;;12.48;;
18206;SDS011;9229;52.354;20.886;2022-08-03T06:44:13;16.63;;;13.93;;
18206;SDS011;9229;52.354;20.886;2022-08-03T06:49:16;18.75;;;13.20;;
18206;SDS011;9229;52.354;20.886;2022-08-03T06:54:21;17.95;;;12.23;;
18206;SDS011;9229;52.354;20.886;2022-08-03T06:59:24;19.80;;;11.98;;
18206;SDS011;9229;52.354;20.886;2022-08-03T07:04:27;17.60;;;12.02;;
18206;SDS011;9229;52.354;20.886;2022-08-03T07:09:31;16.80;;;11.60;;
18206;SDS011;9229;52.354;20.886;2022-08-03T07:14:34;15.52;;;11.32;;
18206;SDS011;9229;52.354;20.886;2022-08-03T07:19:37;11.82;;;10.57;;
18206;SDS011;9229;52.354;20.886;2022-08-03T07:24:42;10.60;;;9.60;;
18206;SDS011;9229;52.354;20.886;2022-08-03T07:29:45;12.82;;;9.60;;
18206;SDS011;9229;52.354;20.886;2022-08-03T07:34:48;13.27;;;10.07;;
18206;SDS011;9229;52.354;20.886;2022-08-03T07:39:52;14.60;;;10.35;;
18206;SDS011;9229;52.354;20.886;2022-08-03T07:44:55;10.95;;;9.88;;
18206;SDS011;9229;52.354;20.886;2022-08-03T07:49:58;11.32;;;9.50;;
18206;SDS011;9229;52.354;20.886;2022-08-03T07:55:03;8.35;;;7.55;;
18206;SDS011;9229;52.354;20.886;2022-08-03T08:00:11;7.00;;;6.22;;
18206;SDS011;9229;52.354;20.886;2022-08-03T08:05:15;7.25;;;6.63;;
18206;SDS011;9229;52.354;20.886;2022-08-03T08:10:20;7.43;;;5.57;;
18206;SDS011;9229;52.354;20.886;2022-08-03T08:15:23;6.60;;;5.07;;
18206;SDS011;9229;52.354;20.886;2022-08-03T08:20:26;8.70;;;4.90;;
18206;SDS011;9229;52.354;20.886;2022-08-03T08:25:32;4.07;;;3.80;;
18206;SDS011;9229;52.354;20.886;2022-08-03T08:30:35;4.07;;;3.78;;
18206;SDS011;9229;52.354;20.886;2022-08-03T08:35:39;4.75;;;3.58;;
18206;SDS011;9229;52.354;20.886;2022-08-03T08:40:43;4.30;;;3.90;;
18206;SDS011;9229;52.354;20.886;2022-08-03T08:45:47;3.30;;;3.05;;
18206;SDS011;9229;52.354;20.886;2022-08-03T08:50:51;5.05;;;2.65;;
18206;SDS011;9229;52.354;20.886;2022-08-03T08:55:57;2.13;;;1.77;;
18206;SDS011;9229;52.354;20.886;2022-08-03T09:01:01;3.17;;;2.55;;
18206;SDS011;9229;52.354;20.886;2022-08-03T09:06:05;2.47;;;2.28;;
18206;SDS011;9229;52.354;20.886;2022-08-03T09:11:10;2.97;;;2.83;;
18206;SDS011;9229;52.354;20.886;2022-08-03T09:16:13;2.40;;;2.17;;
18206;SDS011;9229;52.354;20.886;2022-08-03T09:21:19;3.45;;;2.70;;
18206;SDS011;9229;52.354;20.886;2022-08-03T09:26:25;3.80;;;3.00;;
18206;SDS011;9229;52.354;20.886;2022-08-03T09:31:30;2.83;;;2.72;;
18206;SDS011;9229;52.354;20.886;2022-08-03T09:36:34;2.92;;;2.72;;
18206;SDS011;9229;52.354;20.886;2022-08-03T09:41:40;3.20;;;2.25;;
18206;SDS011;9229;52.354;20.886;2022-08-03T09:46:46;2.63;;;2.53;;
18206;SDS011;9229;52.354;20.886;2022-08-03T09:51:50;2.33;;;2.28;;
18206;SDS011;9229;52.354;20.886;2022-08-03T09:56:55;2.60;;;2.40;;
18206;SDS011;9229;52.354;20.886;2022-08-03T10:01:59;2.30;;;2.20;;
18206;SDS011;9229;52.354;20.886;2022-08-03T10:07:03;2.63;;;2.42;;
18206;SDS011;9229;52.354;20.886;2022-08-03T10:12:10;2.22;;;2.13;;
18206;SDS011;9229;52.354;20.886;2022-08-03T10:17:14;2.38;;;2.30;;
18206;SDS011;9229;52.354;20.886;2022-08-03T10:22:18;2.30;;;2.20;;
18206;SDS011;9229;52.354;20.886;2022-08-03T10:27:25;3.17;;;2.60;;
18206;SDS011;9229;52.354;20.886;2022-08-03T10:32:33;5.70;;;2.38;;
18206;SDS011;9229;52.354;20.886;2022-08-03T10:37:43;9.35;;;2.58;;
18206;SDS011;9229;52.354;20.886;2022-08-03T10:43:01;1.98;;;1.98;;
18206;SDS011;9229;52.354;20.886;2022-08-03T10:48:08;2.75;;;2.00;;
18206;SDS011;9229;52.354;20.886;2022-08-03T10:53:12;1.95;;;1.95;;
18206;SDS011;9229;52.354;20.886;2022-08-03T10:58:16;2.25;;;1.95;;
18206;SDS011;9229;52.354;20.886;2022-08-03T11:09:19;2.25;;;2.15;;
18206;SDS011;9229;52.354;20.886;2022-08-03T11:14:24;1.63;;;1.52;;
18206;SDS011;9229;52.354;20.886;2022-08-03T11:19:27;2.10;;;1.95;;
18206;SDS011;9229;52.354;20.886;2022-08-03T11:30:06;2.22;;;2.00;;
18206;SDS011;9229;52.354;20.886;2022-08-03T11:35:10;2.50;;;2.40;;
18206;SDS011;9229;52.354;20.886;2022-08-03T11:45:36;2.75;;;2.55;;
18206;SDS011;9229;52.354;20.886;2022-08-03T11:50:39;2.83;;;2.63;;
18206;SDS011;9229;52.354;20.886;2022-08-03T11:55:45;2.83;;;2.53;;
18206;SDS011;9229;52.354;20.886;2022-08-03T12:00:51;2.53;;;2.42;;
18206;SDS011;9229;52.354;20.886;2022-08-03T12:05:54;2.53;;;2.42;;
18206;SDS011;9229;52.354;20.886;2022-08-03T12:10:58;2.78;;;2.65;;
18206;SDS011;9229;52.354;20.886;2022-08-03T12:16:03;3.00;;;2.90;;
18206;SDS011;9229;52.354;20.886;2022-08-03T12:21:07;2.47;;;2.38;;
18206;SDS011;9229;52.354;20.886;2022-08-03T12:26:11;2.90;;;2.80;;
18206;SDS011;9229;52.354;20.886;2022-08-03T12:31:15;2.83;;;2.72;;
18206;SDS011;9229;52.354;20.886;2022-08-03T12:36:18;6.15;;;2.70;;
18206;SDS011;9229;52.354;20.886;2022-08-03T12:41:26;4.50;;;2.90;;
18206;SDS011;9229;52.354;20.886;2022-08-03T12:46:33;2.78;;;2.67;;
18206;SDS011;9229;52.354;20.886;2022-08-03T12:51:40;3.10;;;2.90;;
18206;SDS011;9229;52.354;20.886;2022-08-03T12:56:58;3.38;;;3.17;;
18206;SDS011;9229;52.354;20.886;2022-08-03T13:02:03;3.42;;;3.13;;
18206;SDS011;9229;52.354;20.886;2022-08-03T13:07:07;3.00;;;2.90;;
18206;SDS011;9229;52.354;20.886;2022-08-03T13:12:12;3.33;;;3.08;;
18206;SDS011;9229;52.354;20.886;2022-08-03T13:17:17;3.60;;;3.40;;
18206;SDS011;9229;52.354;20.886;2022-08-03T13:22:20;3.40;;;3.20;;
18206;SDS011;9229;52.354;20.886;2022-08-03T13:27:26;4.05;;;2.65;;
18206;SDS011;9229;52.354;20.886;2022-08-03T13:32:31;2.88;;;2.78;;
18206;SDS011;9229;52.354;20.886;2022-08-03T13:37:34;4.03;;;3.28;;
18206;SDS011;9229;52.354;20.886;2022-08-03T13:42:37;3.25;;;3.05;;
18206;SDS011;9229;52.354;20.886;2022-08-03T13:47:41;3.28;;;3.00;;
18206;SDS011;9229;52.354;20.886;2022-08-03T13:52:44;3.55;;;2.85;;
18206;SDS011;9229;52.354;20.886;2022-08-03T13:57:47;4.72;;;3.05;;
18206;SDS011;9229;52.354;20.886;2022-08-03T14:02:52;3.88;;;2.83;;
18206;SDS011;9229;52.354;20.886;2022-08-03T14:07:55;4.03;;;3.00;;
18206;SDS011;9229;52.354;20.886;2022-08-03T14:12:58;3.13;;;3.03;;
18206;SDS011;9229;52.354;20.886;2022-08-03T14:18:02;3.30;;;3.10;;
18206;SDS011;9229;52.354;20.886;2022-08-03T14:23:05;3.38;;;3.10;;
18206;SDS011;9229;52.354;20.886;2022-08-03T14:28:08;3.50;;;3.28;;
18206;SDS011;9229;52.354;20.886;2022-08-03T14:33:13;3.67;;;3.47;;
18206;SDS011;9229;52.354;20.886;2022-08-03T14:38:16;3.53;;;3.33;;
18206;SDS011;9229;52.354;20.886;2022-08-03T14:43:19;3.60;;;3.40;;
18206;SDS011;9229;52.354;20.886;2022-08-03T14:48:24;3.38;;;3.28;;
18206;SDS011;9229;52.354;20.886;2022-08-03T14:53:27;3.97;;;3.67;;
18206;SDS011;9229;52.354;20.886;2022-08-03T14:58:32;3.90;;;3.13;;
18206;SDS011;9229;52.354;20.886;2022-08-03T15:03:36;4.13;;;3.83;;
18206;SDS011;9229;52.354;20.886;2022-08-03T15:08:39;4.00;;;3.80;;
18206;SDS011;9229;52.354;20.886;2022-08-03T15:13:42;4.10;;;3.80;;
18206;SDS011;9229;52.354;20.886;2022-08-03T15:18:46;3.47;;;3.38;;
18206;SDS011;9229;52.354;20.886;2022-08-03T15:23:49;4.18;;;3.83;;
18206;SDS011;9229;52.354;20.886;2022-08-03T15:28:53;4.20;;;4.00;;
18206;SDS011;9229;52.354;20.886;2022-08-03T15:33:58;4.43;;;4.00;;
18206;SDS011;9229;52.354;20.886;2022-08-03T15:39:01;7.10;;;3.78;;
18206;SDS011;9229;52.354;20.886;2022-08-03T15:44:04;10.35;;;4.00;;
18206;SDS011;9229;52.354;20.886;2022-08-03T15:49:08;3.75;;;3.55;;
18206;SDS011;9229;52.354;20.886;2022-08-03T15:54:11;4.05;;;3.75;;
18206;SDS011;9229;52.354;20.886;2022-08-03T15:59:14;3.42;;;3.33;;
18206;SDS011;9229;52.354;20.886;2022-08-03T16:04:20;3.47;;;3.20;;
18206;SDS011;9229;52.354;20.886;2022-08-03T16:09:23;3.65;;;3.47;;
18206;SDS011;9229;52.354;20.886;2022-08-03T16:14:26;3.63;;;3.50;;
18206;SDS011;9229;52.354;20.886;2022-08-03T16:19:30;4.05;;;3.78;;
18206;SDS011;9229;52.354;20.886;2022-08-03T16:24:33;4.82;;;3.42;;
18206;SDS011;9229;52.354;20.886;2022-08-03T16:29:36;3.80;;;3.67;;
18206;SDS011;9229;52.354;20.886;2022-08-03T16:34:40;3.85;;;3.75;;
18206;SDS011;9229;52.354;20.886;2022-08-03T16:39:43;3.65;;;3.42;;
18206;SDS011;9229;52.354;20.886;2022-08-03T16:44:48;3.53;;;3.30;;
18206;SDS011;9229;52.354;20.886;2022-08-03T16:49:52;4.90;;;3.60;;
18206;SDS011;9229;52.354;20.886;2022-08-03T16:54:55;5.10;;;3.42;;
18206;SDS011;9229;52.354;20.886;2022-08-03T16:59:58;3.90;;;3.35;;
18206;SDS011;9229;52.354;20.886;2022-08-03T17:05:03;3.40;;;3.20;;
18206;SDS011;9229;52.354;20.886;2022-08-03T17:10:07;3.70;;;3.47;;
18206;SDS011;9229;52.354;20.886;2022-08-03T17:15:12;3.70;;;3.50;;
18206;SDS011;9229;52.354;20.886;2022-08-03T17:20:16;5.95;;;3.97;;
18206;SDS011;9229;52.354;20.886;2022-08-03T17:25:20;5.45;;;4.00;;
18206;SDS011;9229;52.354;20.886;2022-08-03T17:30:25;4.07;;;3.88;;
18206;SDS011;9229;52.354;20.886;2022-08-03T17:35:49;6.07;;;4.22;;
18206;SDS011;9229;52.354;20.886;2022-08-03T17:40:55;10.00;;;4.03;;
18206;SDS011;9229;52.354;20.886;2022-08-03T17:45:58;8.13;;;3.72;;
18206;SDS011;9229;52.354;20.886;2022-08-03T17:51:06;16.60;;;4.28;;
18206;SDS011;9229;52.354;20.886;2022-08-03T17:56:17;10.02;;;4.93;;
18206;SDS011;9229;52.354;20.886;2022-08-03T18:01:29;6.28;;;4.28;;
18206;SDS011;9229;52.354;20.886;2022-08-03T18:06:56;14.38;;;5.18;;
18206;SDS011;9229;52.354;20.886;2022-08-03T18:12:01;9.88;;;4.93;;
18206;SDS011;9229;52.354;20.886;2022-08-03T18:17:07;7.75;;;4.38;;
18206;SDS011;9229;52.354;20.886;2022-08-03T18:22:16;9.82;;;5.03;;
18206;SDS011;9229;52.354;20.886;2022-08-03T18:27:22;5.38;;;4.78;;
18206;SDS011;9229;52.354;20.886;2022-08-03T18:32:26;11.40;;;5.25;;
18206;SDS011;9229;52.354;20.886;2022-08-03T18:37:31;10.63;;;4.78;;
18206;SDS011;9229;52.354;20.886;2022-08-03T18:42:35;8.30;;;5.20;;
18206;SDS011;9229;52.354;20.886;2022-08-03T18:47:48;16.13;;;5.65;;
18206;SDS011;9229;52.354;20.886;2022-08-03T18:53:00;6.70;;;5.65;;
18206;SDS011;9229;52.354;20.886;2022-08-03T18:58:08;14.55;;;6.15;;
18206;SDS011;9229;52.354;20.886;2022-08-03T19:03:21;15.07;;;6.45;;
18206;SDS011;9229;52.354;20.886;2022-08-03T19:08:27;18.83;;;7.18;;
18206;SDS011;9229;52.354;20.886;2022-08-03T19:13:36;11.80;;;6.22;;
18206;SDS011;9229;52.354;20.886;2022-08-03T19:18:45;11.30;;;6.78;;
18206;SDS011;9229;52.354;20.886;2022-08-03T19:23:52;9.10;;;7.25;;
18206;SDS011;9229;52.354;20.886;2022-08-03T19:28:59;13.02;;;6.68;;
18206;SDS011;9229;52.354;20.886;2022-08-03T19:34:06;17.95;;;6.95;;
18206;SDS011;9229;52.354;20.886;2022-08-03T19:39:11;26.30;;;7.10;;
18206;SDS011;9229;52.354;20.886;2022-08-03T19:44:18;17.10;;;6.47;;
18206;SDS011;9229;52.354;20.886;2022-08-03T19:49:29;10.32;;;6.78;;
18206;SDS011;9229;52.354;20.886;2022-08-03T19:54:40;7.85;;;7.05;;
18206;SDS011;9229;52.354;20.886;2022-08-03T19:59:46;14.23;;;7.30;;
18206;SDS011;9229;52.354;20.886;2022-08-03T20:04:50;13.75;;;7.35;;
18206;SDS011;9229;52.354;20.886;2022-08-03T20:09:55;20.40;;;8.13;;
18206;SDS011;9229;52.354;20.886;2022-08-03T20:14:59;19.35;;;7.70;;
18206;SDS011;9229;52.354;20.886;2022-08-03T20:20:03;18.20;;;8.13;;
18206;SDS011;9229;52.354;20.886;2022-08-03T20:25:09;19.13;;;8.35;;
18206;SDS011;9229;52.354;20.886;2022-08-03T20:30:14;18.50;;;8.52;;
18206;SDS011;9229;52.354;20.886;2022-08-03T20:35:17;12.50;;;8.18;;
18206;SDS011;9229;52.354;20.886;2022-08-03T20:40:21;19.95;;;9.00;;
18206;SDS011;9229;52.354;20.886;2022-08-03T20:45:25;13.50;;;8.45;;
18206;SDS011;9229;52.354;20.886;2022-08-03T20:50:28;11.93;;;8.80;;
18206;SDS011;9229;52.354;20.886;2022-08-03T20:55:33;13.88;;;8.52;;
18206;SDS011;9229;52.354;20.886;2022-08-03T21:00:36;18.95;;;8.75;;
18206;SDS011;9229;52.354;20.886;2022-08-03T21:05:40;12.23;;;7.82;;
18206;SDS011;9229;52.354;20.886;2022-08-03T21:10:47;19.35;;;9.40;;
18206;SDS011;9229;52.354;20.886;2022-08-03T21:15:51;23.55;;;8.85;;
18206;SDS011;9229;52.354;20.886;2022-08-03T21:20:54;10.57;;;8.30;;
18206;SDS011;9229;52.354;20.886;2022-08-03T21:26:02;11.30;;;8.50;;
18206;SDS011;9229;52.354;20.886;2022-08-03T21:31:05;12.98;;;8.63;;
18206;SDS011;9229;52.354;20.886;2022-08-03T21:36:08;11.43;;;8.77;;
18206;SDS011;9229;52.354;20.886;2022-08-03T21:41:13;10.13;;;8.43;;
18206;SDS011;9229;52.354;20.886;2022-08-03T21:46:16;9.93;;;8.65;;
18206;SDS011;9229;52.354;20.886;2022-08-03T21:51:21;12.15;;;9.10;;
18206;SDS011;9229;52.354;20.886;2022-08-03T21:56:28;12.20;;;9.68;;
18206;SDS011;9229;52.354;20.886;2022-08-03T22:01:38;14.30;;;8.50;;
18206;SDS011;9229;52.354;20.886;2022-08-03T22:06:43;14.95;;;10.32;;
18206;SDS011;9229;52.354;20.886;2022-08-03T22:11:48;12.00;;;9.95;;
18206;SDS011;9229;52.354;20.886;2022-08-03T22:16:53;13.32;;;10.65;;
18206;SDS011;9229;52.354;20.886;2022-08-03T22:21:57;12.73;;;9.50;;
18206;SDS011;9229;52.354;20.886;2022-08-03T22:27:02;14.13;;;10.90;;
18206;SDS011;9229;52.354;20.886;2022-08-03T22:32:19;14.30;;;11.48;;
18206;SDS011;9229;52.354;20.886;2022-08-03T22:37:24;25.15;;;12.50;;
18206;SDS011;9229;52.354;20.886;2022-08-03T22:42:30;12.27;;;11.07;;
18206;SDS011;9229;52.354;20.886;2022-08-03T22:47:35;16.05;;;12.15;;
18206;SDS011;9229;52.354;20.886;2022-08-03T22:52:40;14.32;;;11.10;;
18206;SDS011;9229;52.354;20.886;2022-08-03T22:57:45;18.30;;;11.25;;
18206;SDS011;9229;52.354;20.886;2022-08-03T23:02:48;16.02;;;11.65;;
18206;SDS011;9229;52.354;20.886;2022-08-03T23:07:54;21.30;;;12.25;;
18206;SDS011;9229;52.354;20.886;2022-08-03T23:13:01;13.35;;;11.65;;
18206;SDS011;9229;52.354;20.886;2022-08-03T23:18:21;12.07;;;10.82;;
18206;SDS011;9229;52.354;20.886;2022-08-03T23:23:25;15.32;;;12.25;;
18206;SDS011;9229;52.354;20.886;2022-08-03T23:28:31;14.98;;;11.25;;
18206;SDS011;9229;52.354;20.886;2022-08-03T23:33:36;14.52;;;12.73;;
18206;SDS011;9229;52.354;20.886;2022-08-03T23:38:41;15.98;;;12.63;;
18206;SDS011;9229;52.354;20.886;2022-08-03T23:43:47;24.00;;;12.52;;
18206;SDS011;9229;52.354;20.886;2022-08-03T23:48:51;12.68;;;11.35;;
18206;SDS011;9229;52.354;20.886;2022-08-03T23:53:56;20.08;;;11.90;;
18206;SDS011;9229;52.354;20.886;2022-08-03T23:59:06;12.52;;;11.30;;
